sensor_id;sensor_type;location;lat;lon;timestamp;P1;durP1;ratioP1;P2;durP2;ratioP2
38196;SDS011;26543;51.976;4.616;2023-02-12T00:01:29;7.18;;;6.05;;
38196;SDS011;26543;51.976;4.616;2023-02-12T00:03:55;6.03;;;5.03;;
38196;SDS011;26543;51.976;4.616;2023-02-12T00:06:21;10.07;;;5.35;;
38196;SDS011;26543;51.976;4.616;2023-02-12T00:08:50;8.05;;;5.25;;
38196;SDS011;26543;51.976;4.616;2023-02-12T00:11:17;8.73;;;5.13;;
38196;SDS011;26543;51.976;4.616;2023-02-12T00:13:46;8.52;;;5.95;;
38196;SDS011;26543;51.976;4.616;2023-02-12T00:16:13;10.15;;;5.65;;
38196;SDS011;26543;51.976;4.616;2023-02-12T00:18:50;9.35;;;5.72;;
38196;SDS011;26543;51.976;4.616;2023-02-12T00:21:25;8.27;;;5.22;;
38196;SDS011;26543;51.976;4.616;2023-02-12T00:23:51;11.95;;;5.82;;
38196;SDS011;26543;51.976;4.616;2023-02-12T00:26:18;7.68;;;5.25;;
38196;SDS011;26543;51.976;4.616;2023-02-12T00:28:45;8.25;;;5.38;;
38196;SDS011;26543;51.976;4.616;2023-02-12T00:31:15;10.45;;;6.70;;
38196;SDS011;26543;51.976;4.616;2023-02-12T00:33:46;10.07;;;6.27;;
38196;SDS011;26543;51.976;4.616;2023-02-12T00:36:16;7.88;;;5.30;;
38196;SDS011;26543;51.976;4.616;2023-02-12T00:38:44;8.32;;;5.35;;
38196;SDS011;26543;51.976;4.616;2023-02-12T00:41:10;6.80;;;4.97;;
38196;SDS011;26543;51.976;4.616;2023-02-12T00:43:36;7.03;;;5.70;;
38196;SDS011;26543;51.976;4.616;2023-02-12T00:46:03;8.32;;;5.90;;
38196;SDS011;26543;51.976;4.616;2023-02-12T00:48:30;8.40;;;5.25;;
38196;SDS011;26543;51.976;4.616;2023-02-12T00:50:56;7.43;;;5.15;;
38196;SDS011;26543;51.976;4.616;2023-02-12T00:53:22;9.07;;;5.47;;
38196;SDS011;26543;51.976;4.616;2023-02-12T00:55:47;6.72;;;5.13;;
38196;SDS011;26543;51.976;4.616;2023-02-12T00:58:12;7.25;;;4.82;;
38196;SDS011;26543;51.976;4.616;2023-02-12T01:00:38;7.15;;;5.68;;
38196;SDS011;26543;51.976;4.616;2023-02-12T01:03:03;7.18;;;5.82;;
38196;SDS011;26543;51.976;4.616;2023-02-12T01:05:29;7.82;;;5.57;;
38196;SDS011;26543;51.976;4.616;2023-02-12T01:07:55;11.35;;;5.75;;
38196;SDS011;26543;51.976;4.616;2023-02-12T01:10:21;10.77;;;5.75;;
38196;SDS011;26543;51.976;4.616;2023-02-12T01:12:50;9.95;;;5.57;;
38196;SDS011;26543;51.976;4.616;2023-02-12T01:15:17;7.80;;;5.95;;
38196;SDS011;26543;51.976;4.616;2023-02-12T01:17:46;8.13;;;4.82;;
38196;SDS011;26543;51.976;4.616;2023-02-12T01:20:13;7.45;;;5.63;;
38196;SDS011;26543;51.976;4.616;2023-02-12T01:22:42;8.35;;;5.28;;
38196;SDS011;26543;51.976;4.616;2023-02-12T01:25:10;7.80;;;5.70;;
38196;SDS011;26543;51.976;4.616;2023-02-12T01:27:36;8.93;;;5.88;;
38196;SDS011;26543;51.976;4.616;2023-02-12T01:30:01;9.32;;;5.40;;
38196;SDS011;26543;51.976;4.616;2023-02-12T01:32:28;8.07;;;5.53;;
38196;SDS011;26543;51.976;4.616;2023-02-12T01:34:53;7.05;;;5.40;;
38196;SDS011;26543;51.976;4.616;2023-02-12T01:37:19;9.23;;;4.72;;
38196;SDS011;26543;51.976;4.616;2023-02-12T01:39:47;12.90;;;6.75;;
38196;SDS011;26543;51.976;4.616;2023-02-12T01:42:13;7.50;;;5.35;;
38196;SDS011;26543;51.976;4.616;2023-02-12T01:44:43;8.80;;;6.47;;
38196;SDS011;26543;51.976;4.616;2023-02-12T01:47:29;5.95;;;4.30;;
38196;SDS011;26543;51.976;4.616;2023-02-12T01:49:55;9.80;;;5.38;;
38196;SDS011;26543;51.976;4.616;2023-02-12T01:52:26;6.45;;;5.18;;
38196;SDS011;26543;51.976;4.616;2023-02-12T01:54:54;8.80;;;5.65;;
38196;SDS011;26543;51.976;4.616;2023-02-12T01:57:23;11.75;;;6.28;;
38196;SDS011;26543;51.976;4.616;2023-02-12T01:59:52;10.60;;;6.63;;
38196;SDS011;26543;51.976;4.616;2023-02-12T02:02:20;9.15;;;5.40;;
38196;SDS011;26543;51.976;4.616;2023-02-12T02:04:47;9.90;;;6.53;;
38196;SDS011;26543;51.976;4.616;2023-02-12T02:07:15;9.02;;;5.88;;
38196;SDS011;26543;51.976;4.616;2023-02-12T02:09:41;10.73;;;6.15;;
38196;SDS011;26543;51.976;4.616;2023-02-12T02:12:07;7.78;;;5.82;;
38196;SDS011;26543;51.976;4.616;2023-02-12T02:14:53;12.13;;;5.80;;
38196;SDS011;26543;51.976;4.616;2023-02-12T02:38:49;7.85;;;6.32;;
38196;SDS011;26543;51.976;4.616;2023-02-12T02:41:36;8.38;;;5.85;;
38196;SDS011;26543;51.976;4.616;2023-02-12T02:44:13;11.75;;;7.13;;
38196;SDS011;26543;51.976;4.616;2023-02-12T02:46:46;8.80;;;5.53;;
38196;SDS011;26543;51.976;4.616;2023-02-12T02:49:28;10.52;;;5.88;;
38196;SDS011;26543;51.976;4.616;2023-02-12T02:52:06;8.23;;;5.90;;
38196;SDS011;26543;51.976;4.616;2023-02-12T02:54:42;9.10;;;5.43;;
38196;SDS011;26543;51.976;4.616;2023-02-12T02:57:17;6.63;;;5.93;;
38196;SDS011;26543;51.976;4.616;2023-02-12T03:00:08;9.35;;;6.15;;
38196;SDS011;26543;51.976;4.616;2023-02-12T03:02:39;8.82;;;6.50;;
38196;SDS011;26543;51.976;4.616;2023-02-12T03:05:09;8.95;;;6.13;;
38196;SDS011;26543;51.976;4.616;2023-02-12T03:07:46;8.55;;;6.38;;
38196;SDS011;26543;51.976;4.616;2023-02-12T03:10:23;12.05;;;7.05;;
38196;SDS011;26543;51.976;4.616;2023-02-12T03:12:54;11.38;;;6.25;;
38196;SDS011;26543;51.976;4.616;2023-02-12T03:15:33;8.55;;;5.72;;
38196;SDS011;26543;51.976;4.616;2023-02-12T03:18:04;8.25;;;5.47;;
38196;SDS011;26543;51.976;4.616;2023-02-12T03:20:36;9.95;;;7.10;;
38196;SDS011;26543;51.976;4.616;2023-02-12T03:23:12;8.05;;;5.78;;
38196;SDS011;26543;51.976;4.616;2023-02-12T03:25:48;9.48;;;6.25;;
38196;SDS011;26543;51.976;4.616;2023-02-12T03:28:28;6.95;;;5.70;;
38196;SDS011;26543;51.976;4.616;2023-02-12T03:31:07;9.13;;;5.43;;
38196;SDS011;26543;51.976;4.616;2023-02-12T03:33:43;9.88;;;7.10;;
38196;SDS011;26543;51.976;4.616;2023-02-12T03:36:25;9.25;;;5.30;;
38196;SDS011;26543;51.976;4.616;2023-02-12T03:38:52;9.63;;;7.50;;
38196;SDS011;26543;51.976;4.616;2023-02-12T03:41:24;10.80;;;5.60;;
38196;SDS011;26543;51.976;4.616;2023-02-12T03:43:58;9.00;;;5.88;;
38196;SDS011;26543;51.976;4.616;2023-02-12T03:49:09;8.55;;;5.82;;
38196;SDS011;26543;51.976;4.616;2023-02-12T03:51:44;12.07;;;5.93;;
38196;SDS011;26543;51.976;4.616;2023-02-12T03:54:11;7.93;;;4.70;;
38196;SDS011;26543;51.976;4.616;2023-02-12T03:59:08;7.90;;;5.40;;
38196;SDS011;26543;51.976;4.616;2023-02-12T04:01:34;6.72;;;5.55;;
38196;SDS011;26543;51.976;4.616;2023-02-12T04:04:04;6.90;;;5.60;;
38196;SDS011;26543;51.976;4.616;2023-02-12T04:06:32;8.52;;;6.20;;
38196;SDS011;26543;51.976;4.616;2023-02-12T04:09:00;9.18;;;6.68;;
38196;SDS011;26543;51.976;4.616;2023-02-12T04:14:01;9.90;;;6.60;;
38196;SDS011;26543;51.976;4.616;2023-02-12T04:16:39;8.32;;;6.90;;
38196;SDS011;26543;51.976;4.616;2023-02-12T04:19:06;6.55;;;5.13;;
38196;SDS011;26543;51.976;4.616;2023-02-12T04:21:43;11.32;;;5.78;;
38196;SDS011;26543;51.976;4.616;2023-02-12T04:24:19;6.75;;;5.55;;
38196;SDS011;26543;51.976;4.616;2023-02-12T04:27:11;9.27;;;6.72;;
38196;SDS011;26543;51.976;4.616;2023-02-12T04:30:02;11.00;;;5.73;;
38196;SDS011;26543;51.976;4.616;2023-02-12T04:37:56;9.43;;;6.45;;
38196;SDS011;26543;51.976;4.616;2023-02-12T04:40:34;8.70;;;6.22;;
38196;SDS011;26543;51.976;4.616;2023-02-12T04:43:01;8.80;;;5.72;;
38196;SDS011;26543;51.976;4.616;2023-02-12T04:45:27;9.80;;;7.00;;
38196;SDS011;26543;51.976;4.616;2023-02-12T04:47:58;8.48;;;6.22;;
38196;SDS011;26543;51.976;4.616;2023-02-12T04:50:24;7.18;;;5.40;;
38196;SDS011;26543;51.976;4.616;2023-02-12T04:52:50;9.27;;;5.95;;
38196;SDS011;26543;51.976;4.616;2023-02-12T04:55:16;9.23;;;6.47;;
38196;SDS011;26543;51.976;4.616;2023-02-12T04:57:41;7.53;;;5.85;;
38196;SDS011;26543;51.976;4.616;2023-02-12T05:00:07;8.95;;;5.53;;
38196;SDS011;26543;51.976;4.616;2023-02-12T05:02:36;13.50;;;6.60;;
38196;SDS011;26543;51.976;4.616;2023-02-12T05:05:02;9.95;;;6.47;;
38196;SDS011;26543;51.976;4.616;2023-02-12T05:07:27;9.00;;;6.47;;
38196;SDS011;26543;51.976;4.616;2023-02-12T05:09:53;10.85;;;6.45;;
38196;SDS011;26543;51.976;4.616;2023-02-12T05:12:18;9.85;;;4.97;;
38196;SDS011;26543;51.976;4.616;2023-02-12T05:14:44;10.15;;;6.10;;
38196;SDS011;26543;51.976;4.616;2023-02-12T05:17:09;7.45;;;5.57;;
38196;SDS011;26543;51.976;4.616;2023-02-12T05:19:34;9.85;;;6.35;;
38196;SDS011;26543;51.976;4.616;2023-02-12T05:22:00;8.80;;;5.70;;
38196;SDS011;26543;51.976;4.616;2023-02-12T05:24:26;9.02;;;6.30;;
38196;SDS011;26543;51.976;4.616;2023-02-12T05:26:52;7.03;;;5.55;;
38196;SDS011;26543;51.976;4.616;2023-02-12T05:29:17;6.40;;;5.25;;
38196;SDS011;26543;51.976;4.616;2023-02-12T05:31:43;7.72;;;5.93;;
38196;SDS011;26543;51.976;4.616;2023-02-12T05:34:14;7.55;;;5.55;;
38196;SDS011;26543;51.976;4.616;2023-02-12T05:36:40;9.85;;;5.82;;
38196;SDS011;26543;51.976;4.616;2023-02-12T05:39:05;9.43;;;5.72;;
38196;SDS011;26543;51.976;4.616;2023-02-12T05:41:31;9.20;;;6.13;;
38196;SDS011;26543;51.976;4.616;2023-02-12T05:44:00;7.63;;;5.38;;
38196;SDS011;26543;51.976;4.616;2023-02-12T05:46:26;7.97;;;5.72;;
38196;SDS011;26543;51.976;4.616;2023-02-12T05:48:52;8.30;;;5.15;;
38196;SDS011;26543;51.976;4.616;2023-02-12T05:51:21;7.30;;;5.65;;
38196;SDS011;26543;51.976;4.616;2023-02-12T05:53:49;8.82;;;5.90;;
38196;SDS011;26543;51.976;4.616;2023-02-12T05:56:22;7.43;;;5.50;;
38196;SDS011;26543;51.976;4.616;2023-02-12T05:59:00;6.50;;;5.25;;
38196;SDS011;26543;51.976;4.616;2023-02-12T06:01:31;9.32;;;6.35;;
38196;SDS011;26543;51.976;4.616;2023-02-12T06:04:02;9.07;;;5.82;;
38196;SDS011;26543;51.976;4.616;2023-02-12T06:06:29;9.90;;;6.03;;
38196;SDS011;26543;51.976;4.616;2023-02-12T06:08:55;9.35;;;5.53;;
38196;SDS011;26543;51.976;4.616;2023-02-12T06:11:21;7.70;;;5.35;;
38196;SDS011;26543;51.976;4.616;2023-02-12T06:13:47;10.00;;;6.72;;
38196;SDS011;26543;51.976;4.616;2023-02-12T06:16:20;7.55;;;5.25;;
38196;SDS011;26543;51.976;4.616;2023-02-12T06:18:47;10.52;;;7.05;;
38196;SDS011;26543;51.976;4.616;2023-02-12T06:21:14;7.47;;;5.05;;
38196;SDS011;26543;51.976;4.616;2023-02-12T06:23:40;10.65;;;6.63;;
38196;SDS011;26543;51.976;4.616;2023-02-12T06:26:05;9.77;;;6.10;;
38196;SDS011;26543;51.976;4.616;2023-02-12T06:28:31;11.80;;;5.40;;
38196;SDS011;26543;51.976;4.616;2023-02-12T06:30:56;7.95;;;5.70;;
38196;SDS011;26543;51.976;4.616;2023-02-12T06:33:22;8.38;;;6.00;;
38196;SDS011;26543;51.976;4.616;2023-02-12T06:35:47;10.50;;;6.03;;
38196;SDS011;26543;51.976;4.616;2023-02-12T06:38:13;8.75;;;5.72;;
38196;SDS011;26543;51.976;4.616;2023-02-12T06:40:38;7.78;;;5.18;;
38196;SDS011;26543;51.976;4.616;2023-02-12T06:43:03;7.25;;;5.47;;
38196;SDS011;26543;51.976;4.616;2023-02-12T06:45:29;9.85;;;6.43;;
38196;SDS011;26543;51.976;4.616;2023-02-12T06:47:55;9.55;;;6.65;;
38196;SDS011;26543;51.976;4.616;2023-02-12T06:50:20;8.10;;;5.70;;
38196;SDS011;26543;51.976;4.616;2023-02-12T06:52:46;10.23;;;5.55;;
38196;SDS011;26543;51.976;4.616;2023-02-12T06:55:11;7.75;;;5.15;;
38196;SDS011;26543;51.976;4.616;2023-02-12T06:57:37;7.68;;;5.38;;
38196;SDS011;26543;51.976;4.616;2023-02-12T07:00:02;7.40;;;5.10;;
38196;SDS011;26543;51.976;4.616;2023-02-12T07:02:28;8.10;;;5.50;;
38196;SDS011;26543;51.976;4.616;2023-02-12T07:04:54;8.38;;;6.40;;
38196;SDS011;26543;51.976;4.616;2023-02-12T07:07:19;8.77;;;6.20;;
38196;SDS011;26543;51.976;4.616;2023-02-12T07:09:44;6.80;;;4.40;;
38196;SDS011;26543;51.976;4.616;2023-02-12T07:12:10;7.32;;;5.57;;
38196;SDS011;26543;51.976;4.616;2023-02-12T07:14:38;8.48;;;5.43;;
38196;SDS011;26543;51.976;4.616;2023-02-12T07:17:04;8.88;;;6.47;;
38196;SDS011;26543;51.976;4.616;2023-02-12T07:19:31;6.47;;;5.07;;
38196;SDS011;26543;51.976;4.616;2023-02-12T07:21:57;14.85;;;9.65;;
38196;SDS011;26543;51.976;4.616;2023-02-12T07:24:22;10.98;;;7.00;;
38196;SDS011;26543;51.976;4.616;2023-02-12T07:26:48;8.30;;;5.80;;
38196;SDS011;26543;51.976;4.616;2023-02-12T07:29:13;8.27;;;5.82;;
38196;SDS011;26543;51.976;4.616;2023-02-12T07:31:39;8.45;;;4.95;;
38196;SDS011;26543;51.976;4.616;2023-02-12T07:34:05;7.45;;;5.45;;
38196;SDS011;26543;51.976;4.616;2023-02-12T07:36:31;6.55;;;5.07;;
38196;SDS011;26543;51.976;4.616;2023-02-12T07:38:57;6.28;;;5.28;;
38196;SDS011;26543;51.976;4.616;2023-02-12T07:41:27;10.55;;;6.05;;
38196;SDS011;26543;51.976;4.616;2023-02-12T07:43:55;7.78;;;5.55;;
38196;SDS011;26543;51.976;4.616;2023-02-12T07:46:26;8.52;;;5.50;;
38196;SDS011;26543;51.976;4.616;2023-02-12T07:48:56;7.75;;;5.82;;
38196;SDS011;26543;51.976;4.616;2023-02-12T07:51:23;7.78;;;5.55;;
38196;SDS011;26543;51.976;4.616;2023-02-12T07:53:51;9.23;;;5.70;;
38196;SDS011;26543;51.976;4.616;2023-02-12T07:56:24;9.32;;;7.00;;
38196;SDS011;26543;51.976;4.616;2023-02-12T07:58:56;10.75;;;5.45;;
38196;SDS011;26543;51.976;4.616;2023-02-12T08:03:51;12.50;;;6.85;;
38196;SDS011;26543;51.976;4.616;2023-02-12T08:06:22;10.23;;;6.78;;
38196;SDS011;26543;51.976;4.616;2023-02-12T08:08:56;9.57;;;6.00;;
38196;SDS011;26543;51.976;4.616;2023-02-12T08:11:23;7.93;;;6.32;;
38196;SDS011;26543;51.976;4.616;2023-02-12T08:13:49;10.10;;;6.47;;
38196;SDS011;26543;51.976;4.616;2023-02-12T08:16:19;9.77;;;7.07;;
38196;SDS011;26543;51.976;4.616;2023-02-12T08:18:47;10.98;;;6.88;;
38196;SDS011;26543;51.976;4.616;2023-02-12T08:21:14;9.35;;;7.05;;
38196;SDS011;26543;51.976;4.616;2023-02-12T08:23:42;10.55;;;6.55;;
38196;SDS011;26543;51.976;4.616;2023-02-12T08:28:34;14.07;;;6.60;;
38196;SDS011;26543;51.976;4.616;2023-02-12T08:31:04;10.32;;;6.68;;
38196;SDS011;26543;51.976;4.616;2023-02-12T08:33:32;7.88;;;6.07;;
38196;SDS011;26543;51.976;4.616;2023-02-12T08:36:05;7.38;;;5.57;;
38196;SDS011;26543;51.976;4.616;2023-02-12T08:38:33;8.82;;;6.68;;
38196;SDS011;26543;51.976;4.616;2023-02-12T08:41:03;9.88;;;6.13;;
38196;SDS011;26543;51.976;4.616;2023-02-12T08:43:40;8.20;;;5.68;;
38196;SDS011;26543;51.976;4.616;2023-02-12T08:46:16;9.23;;;5.72;;
38196;SDS011;26543;51.976;4.616;2023-02-12T08:48:47;7.35;;;5.80;;
38196;SDS011;26543;51.976;4.616;2023-02-12T08:51:17;9.18;;;5.45;;
38196;SDS011;26543;51.976;4.616;2023-02-12T08:53:51;7.55;;;5.43;;
38196;SDS011;26543;51.976;4.616;2023-02-12T08:56:22;7.28;;;5.57;;
38196;SDS011;26543;51.976;4.616;2023-02-12T08:58:49;7.82;;;5.93;;
38196;SDS011;26543;51.976;4.616;2023-02-12T09:01:17;9.60;;;6.05;;
38196;SDS011;26543;51.976;4.616;2023-02-12T09:04:03;10.43;;;6.40;;
38196;SDS011;26543;51.976;4.616;2023-02-12T09:06:31;7.72;;;5.93;;
38196;SDS011;26543;51.976;4.616;2023-02-12T09:08:57;6.75;;;4.80;;
38196;SDS011;26543;51.976;4.616;2023-02-12T09:11:24;7.18;;;5.63;;
38196;SDS011;26543;51.976;4.616;2023-02-12T09:14:03;7.97;;;5.75;;
38196;SDS011;26543;51.976;4.616;2023-02-12T09:16:32;6.65;;;4.90;;
38196;SDS011;26543;51.976;4.616;2023-02-12T09:18:59;7.50;;;5.78;;
38196;SDS011;26543;51.976;4.616;2023-02-12T09:21:24;7.00;;;4.68;;
38196;SDS011;26543;51.976;4.616;2023-02-12T09:23:50;7.45;;;4.88;;
38196;SDS011;26543;51.976;4.616;2023-02-12T09:26:18;6.55;;;4.57;;
38196;SDS011;26543;51.976;4.616;2023-02-12T09:31:25;10.30;;;4.57;;
38196;SDS011;26543;51.976;4.616;2023-02-12T09:36:38;6.97;;;5.22;;
38196;SDS011;26543;51.976;4.616;2023-02-12T09:39:07;6.05;;;4.53;;
38196;SDS011;26543;51.976;4.616;2023-02-12T09:41:53;7.22;;;4.60;;
38196;SDS011;26543;51.976;4.616;2023-02-12T09:44:45;7.63;;;5.60;;
38196;SDS011;26543;51.976;4.616;2023-02-12T09:50:53;8.43;;;3.90;;
38196;SDS011;26543;51.976;4.616;2023-02-12T09:53:25;5.53;;;4.32;;
38196;SDS011;26543;51.976;4.616;2023-02-12T09:55:53;6.63;;;4.55;;
38196;SDS011;26543;51.976;4.616;2023-02-12T09:58:30;9.00;;;5.28;;
38196;SDS011;26543;51.976;4.616;2023-02-12T10:01:00;7.22;;;4.95;;
38196;SDS011;26543;51.976;4.616;2023-02-12T10:03:35;7.68;;;4.90;;
38196;SDS011;26543;51.976;4.616;2023-02-12T10:06:04;7.22;;;4.72;;
38196;SDS011;26543;51.976;4.616;2023-02-12T10:16:08;5.75;;;4.25;;
38196;SDS011;26543;51.976;4.616;2023-02-12T10:19:00;12.43;;;4.97;;
38196;SDS011;26543;51.976;4.616;2023-02-12T10:21:46;7.50;;;5.20;;
38196;SDS011;26543;51.976;4.616;2023-02-12T10:27:46;6.43;;;4.40;;
38196;SDS011;26543;51.976;4.616;2023-02-12T10:30:25;6.72;;;5.10;;
38196;SDS011;26543;51.976;4.616;2023-02-12T10:32:59;7.82;;;5.28;;
38196;SDS011;26543;51.976;4.616;2023-02-12T10:35:30;7.68;;;4.38;;
38196;SDS011;26543;51.976;4.616;2023-02-12T10:37:59;5.85;;;4.35;;
38196;SDS011;26543;51.976;4.616;2023-02-12T10:40:31;6.07;;;4.75;;
38196;SDS011;26543;51.976;4.616;2023-02-12T10:42:58;6.28;;;4.20;;
38196;SDS011;26543;51.976;4.616;2023-02-12T10:48:09;11.48;;;5.22;;
38196;SDS011;26543;51.976;4.616;2023-02-12T10:53:42;6.82;;;5.25;;
38196;SDS011;26543;51.976;4.616;2023-02-12T10:56:19;8.32;;;4.82;;
38196;SDS011;26543;51.976;4.616;2023-02-12T10:58:52;8.77;;;4.72;;
38196;SDS011;26543;51.976;4.616;2023-02-12T11:01:27;7.18;;;4.70;;
38196;SDS011;26543;51.976;4.616;2023-02-12T11:03:55;6.72;;;4.85;;
38196;SDS011;26543;51.976;4.616;2023-02-12T11:06:30;8.05;;;4.60;;
38196;SDS011;26543;51.976;4.616;2023-02-12T11:08:56;6.65;;;4.07;;
38196;SDS011;26543;51.976;4.616;2023-02-12T11:11:26;6.68;;;4.05;;
38196;SDS011;26543;51.976;4.616;2023-02-12T11:17:02;6.95;;;4.22;;
38196;SDS011;26543;51.976;4.616;2023-02-12T11:19:28;8.55;;;4.32;;
38196;SDS011;26543;51.976;4.616;2023-02-12T11:22:11;8.25;;;5.07;;
38196;SDS011;26543;51.976;4.616;2023-02-12T11:24:43;8.50;;;5.03;;
38196;SDS011;26543;51.976;4.616;2023-02-12T11:29:45;10.43;;;4.60;;
38196;SDS011;26543;51.976;4.616;2023-02-12T11:34:41;10.98;;;4.78;;
38196;SDS011;26543;51.976;4.616;2023-02-12T11:37:14;7.60;;;4.82;;
38196;SDS011;26543;51.976;4.616;2023-02-12T11:39:47;5.95;;;3.83;;
38196;SDS011;26543;51.976;4.616;2023-02-12T11:42:18;6.68;;;4.60;;
38196;SDS011;26543;51.976;4.616;2023-02-12T11:44:53;7.55;;;4.47;;
38196;SDS011;26543;51.976;4.616;2023-02-12T11:47:25;6.13;;;4.18;;
38196;SDS011;26543;51.976;4.616;2023-02-12T11:49:55;14.70;;;5.13;;
38196;SDS011;26543;51.976;4.616;2023-02-12T11:52:27;10.15;;;5.18;;
38196;SDS011;26543;51.976;4.616;2023-02-12T11:54:59;9.82;;;4.97;;
38196;SDS011;26543;51.976;4.616;2023-02-12T12:00:15;7.97;;;5.75;;
38196;SDS011;26543;51.976;4.616;2023-02-12T12:03:00;8.50;;;5.10;;
38196;SDS011;26543;51.976;4.616;2023-02-12T12:05:42;8.10;;;5.22;;
38196;SDS011;26543;51.976;4.616;2023-02-12T12:08:13;7.47;;;5.20;;
38196;SDS011;26543;51.976;4.616;2023-02-12T12:13:48;9.25;;;5.35;;
38196;SDS011;26543;51.976;4.616;2023-02-12T12:16:33;7.32;;;4.88;;
38196;SDS011;26543;51.976;4.616;2023-02-12T12:19:23;7.72;;;4.97;;
38196;SDS011;26543;51.976;4.616;2023-02-12T12:22:25;7.20;;;5.30;;
38196;SDS011;26543;51.976;4.616;2023-02-12T12:25:17;8.10;;;4.28;;
38196;SDS011;26543;51.976;4.616;2023-02-12T12:30:45;5.32;;;3.28;;
38196;SDS011;26543;51.976;4.616;2023-02-12T12:33:37;5.72;;;3.58;;
38196;SDS011;26543;51.976;4.616;2023-02-12T12:41:13;5.25;;;3.00;;
38196;SDS011;26543;51.976;4.616;2023-02-12T12:50:18;6.82;;;3.80;;
38196;SDS011;26543;51.976;4.616;2023-02-12T12:57:45;13.85;;;4.40;;
38196;SDS011;26543;51.976;4.616;2023-02-12T13:00:19;5.32;;;3.28;;
38196;SDS011;26543;51.976;4.616;2023-02-12T13:26:35;3.80;;;3.03;;
38196;SDS011;26543;51.976;4.616;2023-02-12T13:29:14;8.45;;;4.00;;
38196;SDS011;26543;51.976;4.616;2023-02-12T13:31:51;6.10;;;3.75;;
38196;SDS011;26543;51.976;4.616;2023-02-12T13:34:20;6.50;;;3.95;;
38196;SDS011;26543;51.976;4.616;2023-02-12T13:36:50;7.20;;;4.13;;
38196;SDS011;26543;51.976;4.616;2023-02-12T13:56:08;8.55;;;5.05;;
38196;SDS011;26543;51.976;4.616;2023-02-12T13:58:49;10.88;;;5.00;;
38196;SDS011;26543;51.976;4.616;2023-02-12T14:05:13;7.40;;;5.18;;
38196;SDS011;26543;51.976;4.616;2023-02-12T14:07:14;6.88;;;4.47;;
38196;SDS011;26543;51.976;4.616;2023-02-12T14:12:33;6.95;;;4.95;;
38196;SDS011;26543;51.976;4.616;2023-02-12T14:27:48;7.95;;;4.65;;
38196;SDS011;26543;51.976;4.616;2023-02-12T14:30:36;7.72;;;5.55;;
38196;SDS011;26543;51.976;4.616;2023-02-12T14:33:35;9.18;;;4.72;;
38196;SDS011;26543;51.976;4.616;2023-02-12T14:41:43;10.73;;;5.88;;
38196;SDS011;26543;51.976;4.616;2023-02-12T14:49:52;7.55;;;5.43;;
38196;SDS011;26543;51.976;4.616;2023-02-12T14:54:41;11.63;;;5.30;;
38196;SDS011;26543;51.976;4.616;2023-02-12T14:57:17;12.93;;;7.07;;
38196;SDS011;26543;51.976;4.616;2023-02-12T15:02:52;9.98;;;5.72;;
38196;SDS011;26543;51.976;4.616;2023-02-12T15:05:23;10.15;;;6.20;;
38196;SDS011;26543;51.976;4.616;2023-02-12T15:07:57;9.52;;;6.05;;
38196;SDS011;26543;51.976;4.616;2023-02-12T15:10:27;10.23;;;6.00;;
38196;SDS011;26543;51.976;4.616;2023-02-12T15:13:12;9.13;;;6.55;;
38196;SDS011;26543;51.976;4.616;2023-02-12T15:16:04;10.32;;;6.60;;
38196;SDS011;26543;51.976;4.616;2023-02-12T15:21:24;11.82;;;6.85;;
38196;SDS011;26543;51.976;4.616;2023-02-12T15:24:08;12.75;;;7.90;;
38196;SDS011;26543;51.976;4.616;2023-02-12T15:26:38;15.57;;;7.40;;
38196;SDS011;26543;51.976;4.616;2023-02-12T15:29:45;14.23;;;6.97;;
38196;SDS011;26543;51.976;4.616;2023-02-12T15:32:06;11.73;;;7.13;;
38196;SDS011;26543;51.976;4.616;2023-02-12T15:34:35;13.65;;;8.52;;
38196;SDS011;26543;51.976;4.616;2023-02-12T15:37:04;15.82;;;8.02;;
38196;SDS011;26543;51.976;4.616;2023-02-12T15:39:41;15.57;;;7.68;;
38196;SDS011;26543;51.976;4.616;2023-02-12T15:42:24;11.73;;;6.95;;
38196;SDS011;26543;51.976;4.616;2023-02-12T15:45:06;14.10;;;6.65;;
38196;SDS011;26543;51.976;4.616;2023-02-12T15:47:36;10.82;;;7.28;;
38196;SDS011;26543;51.976;4.616;2023-02-12T15:50:02;12.43;;;7.68;;
38196;SDS011;26543;51.976;4.616;2023-02-12T15:52:30;14.20;;;8.38;;
38196;SDS011;26543;51.976;4.616;2023-02-12T15:54:59;12.32;;;7.82;;
38196;SDS011;26543;51.976;4.616;2023-02-12T15:57:26;12.02;;;8.02;;
38196;SDS011;26543;51.976;4.616;2023-02-12T15:59:53;12.48;;;7.60;;
38196;SDS011;26543;51.976;4.616;2023-02-12T16:02:22;12.77;;;7.55;;
38196;SDS011;26543;51.976;4.616;2023-02-12T16:04:51;14.32;;;8.00;;
38196;SDS011;26543;51.976;4.616;2023-02-12T16:07:17;10.02;;;7.18;;
38196;SDS011;26543;51.976;4.616;2023-02-12T16:09:43;14.57;;;8.02;;
38196;SDS011;26543;51.976;4.616;2023-02-12T16:12:14;14.25;;;8.32;;
38196;SDS011;26543;51.976;4.616;2023-02-12T16:14:45;14.25;;;8.23;;
38196;SDS011;26543;51.976;4.616;2023-02-12T16:17:25;17.58;;;8.68;;
38196;SDS011;26543;51.976;4.616;2023-02-12T16:22:19;15.77;;;8.25;;
38196;SDS011;26543;51.976;4.616;2023-02-12T16:24:51;14.27;;;8.88;;
38196;SDS011;26543;51.976;4.616;2023-02-12T16:27:23;12.07;;;7.88;;
38196;SDS011;26543;51.976;4.616;2023-02-12T16:29:54;15.52;;;9.93;;
38196;SDS011;26543;51.976;4.616;2023-02-12T16:32:25;12.73;;;8.07;;
38196;SDS011;26543;51.976;4.616;2023-02-12T16:40:17;14.15;;;8.68;;
38196;SDS011;26543;51.976;4.616;2023-02-12T16:47:50;15.40;;;9.32;;
38196;SDS011;26543;51.976;4.616;2023-02-12T16:50:16;15.63;;;9.82;;
38196;SDS011;26543;51.976;4.616;2023-02-12T16:52:43;18.23;;;9.20;;
38196;SDS011;26543;51.976;4.616;2023-02-12T16:55:17;19.45;;;10.73;;
38196;SDS011;26543;51.976;4.616;2023-02-12T16:57:43;14.50;;;8.73;;
38196;SDS011;26543;51.976;4.616;2023-02-12T17:00:10;13.80;;;9.93;;
38196;SDS011;26543;51.976;4.616;2023-02-12T17:02:40;14.02;;;8.48;;
38196;SDS011;26543;51.976;4.616;2023-02-12T17:05:06;15.90;;;9.48;;
38196;SDS011;26543;51.976;4.616;2023-02-12T17:07:32;18.98;;;10.52;;
38196;SDS011;26543;51.976;4.616;2023-02-12T17:09:58;18.42;;;11.05;;
38196;SDS011;26543;51.976;4.616;2023-02-12T17:12:24;13.30;;;8.15;;
38196;SDS011;26543;51.976;4.616;2023-02-12T17:14:49;14.38;;;9.05;;
38196;SDS011;26543;51.976;4.616;2023-02-12T17:17:15;14.15;;;8.82;;
38196;SDS011;26543;51.976;4.616;2023-02-12T17:19:40;14.65;;;8.85;;
38196;SDS011;26543;51.976;4.616;2023-02-12T17:22:06;14.48;;;8.57;;
38196;SDS011;26543;51.976;4.616;2023-02-12T17:24:39;20.65;;;8.73;;
38196;SDS011;26543;51.976;4.616;2023-02-12T17:27:05;20.50;;;10.27;;
38196;SDS011;26543;51.976;4.616;2023-02-12T17:29:31;19.10;;;9.63;;
38196;SDS011;26543;51.976;4.616;2023-02-12T17:31:57;13.35;;;8.57;;
38196;SDS011;26543;51.976;4.616;2023-02-12T17:34:23;13.00;;;8.93;;
38196;SDS011;26543;51.976;4.616;2023-02-12T17:36:49;17.80;;;9.80;;
38196;SDS011;26543;51.976;4.616;2023-02-12T17:39:15;18.38;;;9.95;;
38196;SDS011;26543;51.976;4.616;2023-02-12T17:41:41;15.82;;;8.88;;
38196;SDS011;26543;51.976;4.616;2023-02-12T17:44:08;20.35;;;11.05;;
38196;SDS011;26543;51.976;4.616;2023-02-12T17:46:38;19.38;;;11.60;;
38196;SDS011;26543;51.976;4.616;2023-02-12T17:49:06;18.77;;;10.68;;
38196;SDS011;26543;51.976;4.616;2023-02-12T17:51:31;13.98;;;9.25;;
38196;SDS011;26543;51.976;4.616;2023-02-12T17:53:57;14.25;;;9.55;;
38196;SDS011;26543;51.976;4.616;2023-02-12T17:56:25;20.27;;;9.18;;
38196;SDS011;26543;51.976;4.616;2023-02-12T17:58:51;15.57;;;9.27;;
38196;SDS011;26543;51.976;4.616;2023-02-12T18:01:18;16.90;;;9.45;;
38196;SDS011;26543;51.976;4.616;2023-02-12T18:03:45;20.50;;;11.25;;
38196;SDS011;26543;51.976;4.616;2023-02-12T18:06:11;13.27;;;8.95;;
38196;SDS011;26543;51.976;4.616;2023-02-12T18:08:40;14.75;;;8.85;;
38196;SDS011;26543;51.976;4.616;2023-02-12T18:11:07;15.10;;;8.75;;
38196;SDS011;26543;51.976;4.616;2023-02-12T18:13:34;15.95;;;8.80;;